sensor_id;sensor_type;location;lat;lon;timestamp;temperature;humidity
3298;DHT22;1661;53.572;10.174;2023-08-07T00:01:36;17.40;83.60
3298;DHT22;1661;53.572;10.174;2023-08-07T00:04:03;17.40;83.40
3298;DHT22;1661;53.572;10.174;2023-08-07T00:06:30;17.40;83.10
3298;DHT22;1661;53.572;10.174;2023-08-07T00:08:58;17.40;82.90
3298;DHT22;1661;53.572;10.174;2023-08-07T00:11:25;17.40;82.60
3298;DHT22;1661;53.572;10.174;2023-08-07T00:13:53;17.40;82.40
3298;DHT22;1661;53.572;10.174;2023-08-07T00:16:20;17.40;82.30
3298;DHT22;1661;53.572;10.174;2023-08-07T00:18:46;17.40;82.30
3298;DHT22;1661;53.572;10.174;2023-08-07T00:21:13;17.40;82.20
3298;DHT22;1661;53.572;10.174;2023-08-07T00:23:40;17.40;82.20
3298;DHT22;1661;53.572;10.174;2023-08-07T00:26:08;17.40;81.90
3298;DHT22;1661;53.572;10.174;2023-08-07T00:28:35;17.30;81.60
3298;DHT22;1661;53.572;10.174;2023-08-07T00:31:02;17.20;82.00
3298;DHT22;1661;53.572;10.174;2023-08-07T00:33:29;17.10;82.10
3298;DHT22;1661;53.572;10.174;2023-08-07T00:35:55;17.10;82.00
3298;DHT22;1661;53.572;10.174;2023-08-07T00:38:22;17.10;82.00
3298;DHT22;1661;53.572;10.174;2023-08-07T00:40:49;17.20;81.70
3298;DHT22;1661;53.572;10.174;2023-08-07T00:43:17;17.10;81.50
3298;DHT22;1661;53.572;10.174;2023-08-07T00:45:46;17.00;81.40
3298;DHT22;1661;53.572;10.174;2023-08-07T00:48:15;17.00;81.70
3298;DHT22;1661;53.572;10.174;2023-08-07T00:50:42;17.00;81.80
3298;DHT22;1661;53.572;10.174;2023-08-07T00:53:11;17.00;81.50
3298;DHT22;1661;53.572;10.174;2023-08-07T00:55:38;17.00;81.10
3298;DHT22;1661;53.572;10.174;2023-08-07T00:58:05;17.00;81.30
3298;DHT22;1661;53.572;10.174;2023-08-07T01:00:33;17.00;81.20
3298;DHT22;1661;53.572;10.174;2023-08-07T01:03:01;17.00;81.00
3298;DHT22;1661;53.572;10.174;2023-08-07T01:05:29;17.00;81.20
3298;DHT22;1661;53.572;10.174;2023-08-07T01:07:56;17.10;80.90
3298;DHT22;1661;53.572;10.174;2023-08-07T01:10:29;17.10;80.60
3298;DHT22;1661;53.572;10.174;2023-08-07T01:13:05;17.00;81.20
3298;DHT22;1661;53.572;10.174;2023-08-07T01:15:37;16.90;81.20
3298;DHT22;1661;53.572;10.174;2023-08-07T01:18:07;17.00;81.30
3298;DHT22;1661;53.572;10.174;2023-08-07T01:20:34;16.90;81.30
3298;DHT22;1661;53.572;10.174;2023-08-07T01:23:02;16.90;81.30
3298;DHT22;1661;53.572;10.174;2023-08-07T01:25:29;16.90;81.40
3298;DHT22;1661;53.572;10.174;2023-08-07T01:28:04;16.90;81.40
3298;DHT22;1661;53.572;10.174;2023-08-07T01:30:36;16.80;82.00
3298;DHT22;1661;53.572;10.174;2023-08-07T01:33:10;16.80;82.20
3298;DHT22;1661;53.572;10.174;2023-08-07T01:35:41;16.80;82.30
3298;DHT22;1661;53.572;10.174;2023-08-07T01:38:11;16.80;82.40
3298;DHT22;1661;53.572;10.174;2023-08-07T01:40:39;16.80;82.10
3298;DHT22;1661;53.572;10.174;2023-08-07T01:43:06;16.80;82.00
3298;DHT22;1661;53.572;10.174;2023-08-07T01:45:33;16.70;81.90
3298;DHT22;1661;53.572;10.174;2023-08-07T01:48:01;16.80;81.90
3298;DHT22;1661;53.572;10.174;2023-08-07T01:50:28;16.70;81.90
3298;DHT22;1661;53.572;10.174;2023-08-07T01:52:55;16.70;82.00
3298;DHT22;1661;53.572;10.174;2023-08-07T01:55:23;16.60;82.20
3298;DHT22;1661;53.572;10.174;2023-08-07T01:57:50;16.60;82.20
3298;DHT22;1661;53.572;10.174;2023-08-07T02:00:17;16.60;82.40
3298;DHT22;1661;53.572;10.174;2023-08-07T02:02:44;16.60;82.20
3298;DHT22;1661;53.572;10.174;2023-08-07T02:05:12;16.50;82.30
3298;DHT22;1661;53.572;10.174;2023-08-07T02:07:39;16.50;82.30
3298;DHT22;1661;53.572;10.174;2023-08-07T02:10:07;16.50;82.50
3298;DHT22;1661;53.572;10.174;2023-08-07T02:12:35;16.50;82.40
3298;DHT22;1661;53.572;10.174;2023-08-07T02:15:02;16.50;82.20
3298;DHT22;1661;53.572;10.174;2023-08-07T02:17:29;16.50;82.20
3298;DHT22;1661;53.572;10.174;2023-08-07T02:19:56;16.50;82.20
3298;DHT22;1661;53.572;10.174;2023-08-07T02:22:23;16.40;82.30
3298;DHT22;1661;53.572;10.174;2023-08-07T02:24:50;16.40;82.50
3298;DHT22;1661;53.572;10.174;2023-08-07T02:27:17;16.30;82.70
3298;DHT22;1661;53.572;10.174;2023-08-07T02:29:45;16.30;82.90
3298;DHT22;1661;53.572;10.174;2023-08-07T02:32:12;16.40;83.20
3298;DHT22;1661;53.572;10.174;2023-08-07T02:34:39;16.40;83.00
3298;DHT22;1661;53.572;10.174;2023-08-07T02:37:05;16.40;83.10
3298;DHT22;1661;53.572;10.174;2023-08-07T02:39:32;16.40;83.30
3298;DHT22;1661;53.572;10.174;2023-08-07T02:41:59;16.40;83.30
3298;DHT22;1661;53.572;10.174;2023-08-07T02:44:26;16.30;83.60
3298;DHT22;1661;53.572;10.174;2023-08-07T02:46:54;16.30;84.00
3298;DHT22;1661;53.572;10.174;2023-08-07T02:49:21;16.30;83.90
3298;DHT22;1661;53.572;10.174;2023-08-07T02:51:47;16.30;84.30
3298;DHT22;1661;53.572;10.174;2023-08-07T02:54:14;16.30;84.20
3298;DHT22;1661;53.572;10.174;2023-08-07T02:56:41;16.40;84.30
3298;DHT22;1661;53.572;10.174;2023-08-07T02:59:08;16.40;84.40
3298;DHT22;1661;53.572;10.174;2023-08-07T03:01:35;16.30;84.70
3298;DHT22;1661;53.572;10.174;2023-08-07T03:04:03;16.30;84.80
3298;DHT22;1661;53.572;10.174;2023-08-07T03:06:30;16.30;84.80
3298;DHT22;1661;53.572;10.174;2023-08-07T03:08:57;16.30;84.80
3298;DHT22;1661;53.572;10.174;2023-08-07T03:11:23;16.30;84.70
3298;DHT22;1661;53.572;10.174;2023-08-07T03:13:51;16.30;84.60
3298;DHT22;1661;53.572;10.174;2023-08-07T03:16:17;16.30;84.70
3298;DHT22;1661;53.572;10.174;2023-08-07T03:18:44;16.30;84.60
3298;DHT22;1661;53.572;10.174;2023-08-07T03:21:13;16.30;84.50
3298;DHT22;1661;53.572;10.174;2023-08-07T03:23:40;16.30;84.70
3298;DHT22;1661;53.572;10.174;2023-08-07T03:26:09;16.40;84.80
3298;DHT22;1661;53.572;10.174;2023-08-07T03:28:36;16.40;84.90
3298;DHT22;1661;53.572;10.174;2023-08-07T03:31:03;16.40;84.90
3298;DHT22;1661;53.572;10.174;2023-08-07T03:33:30;16.40;84.80
3298;DHT22;1661;53.572;10.174;2023-08-07T03:35:58;16.40;84.90
3298;DHT22;1661;53.572;10.174;2023-08-07T03:38:26;16.40;85.00
3298;DHT22;1661;53.572;10.174;2023-08-07T03:40:53;16.40;85.10
3298;DHT22;1661;53.572;10.174;2023-08-07T03:43:20;16.40;85.20
3298;DHT22;1661;53.572;10.174;2023-08-07T03:45:47;16.40;85.60
3298;DHT22;1661;53.572;10.174;2023-08-07T03:48:13;16.40;85.80
3298;DHT22;1661;53.572;10.174;2023-08-07T03:50:40;16.40;85.80
3298;DHT22;1661;53.572;10.174;2023-08-07T03:53:07;16.40;85.80
3298;DHT22;1661;53.572;10.174;2023-08-07T03:55:35;16.50;85.70
3298;DHT22;1661;53.572;10.174;2023-08-07T03:58:02;16.50;85.80
3298;DHT22;1661;53.572;10.174;2023-08-07T04:00:29;16.50;85.60
3298;DHT22;1661;53.572;10.174;2023-08-07T04:02:55;16.60;85.40
3298;DHT22;1661;53.572;10.174;2023-08-07T04:05:22;16.60;85.30
3298;DHT22;1661;53.572;10.174;2023-08-07T04:07:49;16.70;85.30
3298;DHT22;1661;53.572;10.174;2023-08-07T04:10:16;16.60;85.50
3298;DHT22;1661;53.572;10.174;2023-08-07T04:12:44;16.70;85.50
3298;DHT22;1661;53.572;10.174;2023-08-07T04:15:11;16.70;85.50
3298;DHT22;1661;53.572;10.174;2023-08-07T04:17:37;16.70;85.50
3298;DHT22;1661;53.572;10.174;2023-08-07T04:20:06;16.70;85.50
3298;DHT22;1661;53.572;10.174;2023-08-07T04:22:33;16.80;85.70
3298;DHT22;1661;53.572;10.174;2023-08-07T04:25:00;16.60;86.40
3298;DHT22;1661;53.572;10.174;2023-08-07T04:27:27;16.60;86.60
3298;DHT22;1661;53.572;10.174;2023-08-07T04:29:55;16.70;86.70
3298;DHT22;1661;53.572;10.174;2023-08-07T04:32:23;16.70;86.60
3298;DHT22;1661;53.572;10.174;2023-08-07T04:34:50;16.70;86.70
3298;DHT22;1661;53.572;10.174;2023-08-07T04:37:16;16.70;86.80
3298;DHT22;1661;53.572;10.174;2023-08-07T04:39:43;16.80;86.80
3298;DHT22;1661;53.572;10.174;2023-08-07T04:42:10;16.70;87.00
3298;DHT22;1661;53.572;10.174;2023-08-07T04:44:37;16.70;87.20
3298;DHT22;1661;53.572;10.174;2023-08-07T04:47:05;16.70;87.00
3298;DHT22;1661;53.572;10.174;2023-08-07T04:49:32;16.80;87.00
3298;DHT22;1661;53.572;10.174;2023-08-07T04:51:59;16.80;86.90
3298;DHT22;1661;53.572;10.174;2023-08-07T04:54:26;16.80;87.00
3298;DHT22;1661;53.572;10.174;2023-08-07T04:56:53;16.80;86.90
3298;DHT22;1661;53.572;10.174;2023-08-07T04:59:20;16.80;87.00
3298;DHT22;1661;53.572;10.174;2023-08-07T05:01:46;16.90;86.90
3298;DHT22;1661;53.572;10.174;2023-08-07T05:04:14;16.90;87.00
3298;DHT22;1661;53.572;10.174;2023-08-07T05:06:41;16.90;86.90
3298;DHT22;1661;53.572;10.174;2023-08-07T05:09:08;16.90;87.10
3298;DHT22;1661;53.572;10.174;2023-08-07T05:11:35;16.80;87.40
3298;DHT22;1661;53.572;10.174;2023-08-07T05:14:01;16.80;87.50
3298;DHT22;1661;53.572;10.174;2023-08-07T05:16:29;16.90;87.50
3298;DHT22;1661;53.572;10.174;2023-08-07T05:18:55;16.90;87.40
3298;DHT22;1661;53.572;10.174;2023-08-07T05:21:24;16.90;87.40
3298;DHT22;1661;53.572;10.174;2023-08-07T05:23:50;16.90;87.60
3298;DHT22;1661;53.572;10.174;2023-08-07T05:26:18;16.90;87.60
3298;DHT22;1661;53.572;10.174;2023-08-07T05:28:45;17.00;87.60
3298;DHT22;1661;53.572;10.174;2023-08-07T05:31:12;17.00;87.20
3298;DHT22;1661;53.572;10.174;2023-08-07T05:33:39;17.00;87.00
3298;DHT22;1661;53.572;10.174;2023-08-07T05:36:06;17.00;87.20
3298;DHT22;1661;53.572;10.174;2023-08-07T05:38:35;17.10;87.20
3298;DHT22;1661;53.572;10.174;2023-08-07T05:41:02;17.10;87.00
3298;DHT22;1661;53.572;10.174;2023-08-07T05:43:28;17.10;87.00
3298;DHT22;1661;53.572;10.174;2023-08-07T05:45:55;17.10;86.90
3298;DHT22;1661;53.572;10.174;2023-08-07T05:48:22;17.10;86.70
3298;DHT22;1661;53.572;10.174;2023-08-07T05:50:50;17.00;86.80
3298;DHT22;1661;53.572;10.174;2023-08-07T05:53:17;17.10;87.00
3298;DHT22;1661;53.572;10.174;2023-08-07T05:55:45;17.20;87.00
3298;DHT22;1661;53.572;10.174;2023-08-07T05:58:12;17.20;86.80
3298;DHT22;1661;53.572;10.174;2023-08-07T06:00:39;17.20;86.60
3298;DHT22;1661;53.572;10.174;2023-08-07T06:03:06;17.20;86.20
3298;DHT22;1661;53.572;10.174;2023-08-07T06:05:33;17.20;86.40
3298;DHT22;1661;53.572;10.174;2023-08-07T06:08:00;17.30;86.10
3298;DHT22;1661;53.572;10.174;2023-08-07T06:10:27;17.30;84.90
3298;DHT22;1661;53.572;10.174;2023-08-07T06:12:55;17.40;84.90
3298;DHT22;1661;53.572;10.174;2023-08-07T06:15:22;17.40;84.50
3298;DHT22;1661;53.572;10.174;2023-08-07T06:17:49;17.40;83.60
3298;DHT22;1661;53.572;10.174;2023-08-07T06:20:17;17.40;83.40
3298;DHT22;1661;53.572;10.174;2023-08-07T06:22:44;17.50;83.50
3298;DHT22;1661;53.572;10.174;2023-08-07T06:25:11;17.50;82.40
3298;DHT22;1661;53.572;10.174;2023-08-07T06:27:38;17.50;81.50
3298;DHT22;1661;53.572;10.174;2023-08-07T06:30:07;17.50;81.20
3298;DHT22;1661;53.572;10.174;2023-08-07T06:32:34;17.40;80.80
3298;DHT22;1661;53.572;10.174;2023-08-07T06:35:02;17.40;80.80
3298;DHT22;1661;53.572;10.174;2023-08-07T06:37:30;17.30;81.20
3298;DHT22;1661;53.572;10.174;2023-08-07T06:39:57;17.30;81.00
3298;DHT22;1661;53.572;10.174;2023-08-07T06:42:23;17.30;81.30
3298;DHT22;1661;53.572;10.174;2023-08-07T06:44:50;17.40;81.30
3298;DHT22;1661;53.572;10.174;2023-08-07T06:47:18;17.50;81.30
3298;DHT22;1661;53.572;10.174;2023-08-07T06:49:45;17.60;81.20
3298;DHT22;1661;53.572;10.174;2023-08-07T06:52:12;17.70;81.30
3298;DHT22;1661;53.572;10.174;2023-08-07T06:54:38;17.80;80.90
3298;DHT22;1661;53.572;10.174;2023-08-07T06:57:05;17.80;80.70
3298;DHT22;1661;53.572;10.174;2023-08-07T06:59:32;17.80;79.90
3298;DHT22;1661;53.572;10.174;2023-08-07T07:01:59;17.80;80.20
3298;DHT22;1661;53.572;10.174;2023-08-07T07:04:27;17.70;80.40
3298;DHT22;1661;53.572;10.174;2023-08-07T07:06:54;17.70;81.00
3298;DHT22;1661;53.572;10.174;2023-08-07T07:09:21;17.70;80.80
3298;DHT22;1661;53.572;10.174;2023-08-07T07:11:48;17.80;80.90
3298;DHT22;1661;53.572;10.174;2023-08-07T07:14:14;17.90;80.40
3298;DHT22;1661;53.572;10.174;2023-08-07T07:16:41;18.00;80.10
3298;DHT22;1661;53.572;10.174;2023-08-07T07:19:09;18.10;79.50
3298;DHT22;1661;53.572;10.174;2023-08-07T07:21:37;18.10;77.70
3298;DHT22;1661;53.572;10.174;2023-08-07T07:24:04;18.10;77.20
3298;DHT22;1661;53.572;10.174;2023-08-07T07:26:31;18.10;75.80
3298;DHT22;1661;53.572;10.174;2023-08-07T07:28:58;18.00;76.20
3298;DHT22;1661;53.572;10.174;2023-08-07T07:31:25;18.10;76.50
3298;DHT22;1661;53.572;10.174;2023-08-07T07:33:52;18.30;76.40
3298;DHT22;1661;53.572;10.174;2023-08-07T07:36:19;18.40;75.70
3298;DHT22;1661;53.572;10.174;2023-08-07T07:38:48;18.50;74.60
3298;DHT22;1661;53.572;10.174;2023-08-07T07:41:14;18.50;74.40
3298;DHT22;1661;53.572;10.174;2023-08-07T07:43:41;18.20;73.80
3298;DHT22;1661;53.572;10.174;2023-08-07T07:46:08;18.00;74.60
3298;DHT22;1661;53.572;10.174;2023-08-07T07:48:35;18.00;74.60
3298;DHT22;1661;53.572;10.174;2023-08-07T07:51:02;17.90;75.20
3298;DHT22;1661;53.572;10.174;2023-08-07T07:53:30;17.90;75.70
3298;DHT22;1661;53.572;10.174;2023-08-07T07:55:58;17.90;75.70
3298;DHT22;1661;53.572;10.174;2023-08-07T07:58:25;17.90;75.80
3298;DHT22;1661;53.572;10.174;2023-08-07T08:00:52;18.00;75.40
3298;DHT22;1661;53.572;10.174;2023-08-07T08:03:19;18.00;75.70
3298;DHT22;1661;53.572;10.174;2023-08-07T08:05:49;18.10;76.20
3298;DHT22;1661;53.572;10.174;2023-08-07T08:08:16;18.30;74.80
3298;DHT22;1661;53.572;10.174;2023-08-07T08:10:43;18.50;74.10
3298;DHT22;1661;53.572;10.174;2023-08-07T08:13:11;18.70;74.60
3298;DHT22;1661;53.572;10.174;2023-08-07T08:15:38;18.80;73.80
3298;DHT22;1661;53.572;10.174;2023-08-07T08:18:05;18.90;74.10
3298;DHT22;1661;53.572;10.174;2023-08-07T08:20:32;19.00;72.50
3298;DHT22;1661;53.572;10.174;2023-08-07T08:22:59;18.90;70.40
3298;DHT22;1661;53.572;10.174;2023-08-07T08:25:25;18.70;71.40
3298;DHT22;1661;53.572;10.174;2023-08-07T08:27:52;18.60;72.60
3298;DHT22;1661;53.572;10.174;2023-08-07T08:30:21;18.40;75.50
3298;DHT22;1661;53.572;10.174;2023-08-07T08:32:48;18.30;75.70
3298;DHT22;1661;53.572;10.174;2023-08-07T08:35:15;18.30;75.60
3298;DHT22;1661;53.572;10.174;2023-08-07T08:37:41;18.40;75.70
3298;DHT22;1661;53.572;10.174;2023-08-07T08:40:09;18.20;75.10
3298;DHT22;1661;53.572;10.174;2023-08-07T08:42:39;18.20;75.20
3298;DHT22;1661;53.572;10.174;2023-08-07T08:45:09;18.20;74.90
3298;DHT22;1661;53.572;10.174;2023-08-07T08:47:38;18.20;74.50
3298;DHT22;1661;53.572;10.174;2023-08-07T08:50:08;18.10;75.20
3298;DHT22;1661;53.572;10.174;2023-08-07T08:52:37;18.10;75.70
3298;DHT22;1661;53.572;10.174;2023-08-07T08:55:05;18.10;76.10
3298;DHT22;1661;53.572;10.174;2023-08-07T08:57:33;18.10;76.30
3298;DHT22;1661;53.572;10.174;2023-08-07T09:00:01;18.00;76.60
3298;DHT22;1661;53.572;10.174;2023-08-07T09:02:30;18.00;76.80
3298;DHT22;1661;53.572;10.174;2023-08-07T09:04:59;18.10;77.70
3298;DHT22;1661;53.572;10.174;2023-08-07T09:07:27;18.00;78.30
3298;DHT22;1661;53.572;10.174;2023-08-07T09:09:56;17.90;78.10
3298;DHT22;1661;53.572;10.174;2023-08-07T09:12:26;17.90;77.80
3298;DHT22;1661;53.572;10.174;2023-08-07T09:14:57;17.70;77.10
3298;DHT22;1661;53.572;10.174;2023-08-07T09:17:27;17.70;77.50
3298;DHT22;1661;53.572;10.174;2023-08-07T09:19:54;17.70;78.50
3298;DHT22;1661;53.572;10.174;2023-08-07T09:22:23;17.70;79.00
3298;DHT22;1661;53.572;10.174;2023-08-07T09:24:48;17.70;78.70
3298;DHT22;1661;53.572;10.174;2023-08-07T09:27:16;17.70;78.20
3298;DHT22;1661;53.572;10.174;2023-08-07T09:29:43;17.70;75.90
3298;DHT22;1661;53.572;10.174;2023-08-07T09:32:12;18.00;76.50
3298;DHT22;1661;53.572;10.174;2023-08-07T09:34:39;18.20;74.40
3298;DHT22;1661;53.572;10.174;2023-08-07T09:37:07;18.50;71.80
3298;DHT22;1661;53.572;10.174;2023-08-07T09:39:35;18.70;71.00
3298;DHT22;1661;53.572;10.174;2023-08-07T09:42:03;18.90;68.30
3298;DHT22;1661;53.572;10.174;2023-08-07T09:44:35;19.00;67.10
3298;DHT22;1661;53.572;10.174;2023-08-07T09:47:11;18.80;67.10
3298;DHT22;1661;53.572;10.174;2023-08-07T09:49:38;18.70;65.90
3298;DHT22;1661;53.572;10.174;2023-08-07T09:52:06;18.70;67.90
3298;DHT22;1661;53.572;10.174;2023-08-07T09:54:35;18.80;67.10
3298;DHT22;1661;53.572;10.174;2023-08-07T09:57:03;18.90;65.30
3298;DHT22;1661;53.572;10.174;2023-08-07T09:59:32;18.90;65.30
3298;DHT22;1661;53.572;10.174;2023-08-07T10:02:00;19.00;64.80
3298;DHT22;1661;53.572;10.174;2023-08-07T10:04:27;19.10;63.40
3298;DHT22;1661;53.572;10.174;2023-08-07T10:06:55;19.20;63.70
3298;DHT22;1661;53.572;10.174;2023-08-07T10:09:22;19.40;62.30
3298;DHT22;1661;53.572;10.174;2023-08-07T10:11:50;19.50;62.20
3298;DHT22;1661;53.572;10.174;2023-08-07T10:14:18;19.70;61.50
3298;DHT22;1661;53.572;10.174;2023-08-07T10:16:46;19.90;62.20
3298;DHT22;1661;53.572;10.174;2023-08-07T10:19:13;20.10;61.90
3298;DHT22;1661;53.572;10.174;2023-08-07T10:21:40;20.30;61.50
3298;DHT22;1661;53.572;10.174;2023-08-07T10:24:09;20.40;59.00
3298;DHT22;1661;53.572;10.174;2023-08-07T10:26:43;20.40;61.00
3298;DHT22;1661;53.572;10.174;2023-08-07T10:29:15;20.50;60.20
3298;DHT22;1661;53.572;10.174;2023-08-07T10:31:45;20.50;57.50
3298;DHT22;1661;53.572;10.174;2023-08-07T10:34:13;20.60;57.30
3298;DHT22;1661;53.572;10.174;2023-08-07T10:36:40;20.60;59.50
3298;DHT22;1661;53.572;10.174;2023-08-07T10:39:07;20.70;58.50
3298;DHT22;1661;53.572;10.174;2023-08-07T10:41:42;20.90;58.00
3298;DHT22;1661;53.572;10.174;2023-08-07T10:44:20;21.10;57.50
3298;DHT22;1661;53.572;10.174;2023-08-07T10:46:49;21.30;57.20
3298;DHT22;1661;53.572;10.174;2023-08-07T10:49:33;21.20;57.20
3298;DHT22;1661;53.572;10.174;2023-08-07T10:52:07;21.20;57.90
3298;DHT22;1661;53.572;10.174;2023-08-07T10:54:38;21.10;58.50
3298;DHT22;1661;53.572;10.174;2023-08-07T10:57:10;21.10;59.10
3298;DHT22;1661;53.572;10.174;2023-08-07T10:59:44;21.30;58.60
3298;DHT22;1661;53.572;10.174;2023-08-07T11:02:21;21.40;57.20
3298;DHT22;1661;53.572;10.174;2023-08-07T11:04:48;21.40;57.70
3298;DHT22;1661;53.572;10.174;2023-08-07T11:07:23;21.40;56.60
3298;DHT22;1661;53.572;10.174;2023-08-07T11:09:50;21.10;58.40
3298;DHT22;1661;53.572;10.174;2023-08-07T11:12:17;20.90;57.30
3298;DHT22;1661;53.572;10.174;2023-08-07T11:14:45;20.90;60.90
3298;DHT22;1661;53.572;10.174;2023-08-07T11:17:12;20.80;59.50
3298;DHT22;1661;53.572;10.174;2023-08-07T11:19:39;20.90;59.60
3298;DHT22;1661;53.572;10.174;2023-08-07T11:22:06;21.10;58.60
3298;DHT22;1661;53.572;10.174;2023-08-07T11:24:33;21.30;58.00
3298;DHT22;1661;53.572;10.174;2023-08-07T11:27:00;21.40;57.60
3298;DHT22;1661;53.572;10.174;2023-08-07T11:29:27;21.20;58.40
3298;DHT22;1661;53.572;10.174;2023-08-07T11:31:55;21.10;58.60
3298;DHT22;1661;53.572;10.174;2023-08-07T11:34:22;20.80;60.10
3298;DHT22;1661;53.572;10.174;2023-08-07T11:36:51;20.40;60.30
3298;DHT22;1661;53.572;10.174;2023-08-07T11:39:19;20.10;62.20
3298;DHT22;1661;53.572;10.174;2023-08-07T11:41:46;20.40;62.70
3298;DHT22;1661;53.572;10.174;2023-08-07T11:44:13;20.50;61.90
3298;DHT22;1661;53.572;10.174;2023-08-07T11:46:40;20.50;62.20
3298;DHT22;1661;53.572;10.174;2023-08-07T11:49:09;20.60;62.20
3298;DHT22;1661;53.572;10.174;2023-08-07T11:51:36;20.80;61.90
3298;DHT22;1661;53.572;10.174;2023-08-07T11:54:03;20.90;61.60
3298;DHT22;1661;53.572;10.174;2023-08-07T11:56:30;20.90;60.60
3298;DHT22;1661;53.572;10.174;2023-08-07T11:58:57;20.70;60.80
3298;DHT22;1661;53.572;10.174;2023-08-07T12:01:25;20.70;62.70
3298;DHT22;1661;53.572;10.174;2023-08-07T12:03:53;20.60;62.80
3298;DHT22;1661;53.572;10.174;2023-08-07T12:06:23;20.60;60.40
3298;DHT22;1661;53.572;10.174;2023-08-07T12:08:53;20.40;58.50
3298;DHT22;1661;53.572;10.174;2023-08-07T12:11:21;20.40;59.30
3298;DHT22;1661;53.572;10.174;2023-08-07T12:13:49;20.40;59.30
3298;DHT22;1661;53.572;10.174;2023-08-07T12:16:16;20.50;58.30
3298;DHT22;1661;53.572;10.174;2023-08-07T12:18:44;20.50;59.40
3298;DHT22;1661;53.572;10.174;2023-08-07T12:21:14;19.80;61.00
3298;DHT22;1661;53.572;10.174;2023-08-07T12:23:44;19.20;63.30
3298;DHT22;1661;53.572;10.174;2023-08-07T12:26:13;19.10;66.20
3298;DHT22;1661;53.572;10.174;2023-08-07T12:28:40;19.10;65.00
3298;DHT22;1661;53.572;10.174;2023-08-07T12:31:07;19.10;66.80
3298;DHT22;1661;53.572;10.174;2023-08-07T12:33:34;19.10;65.70
3298;DHT22;1661;53.572;10.174;2023-08-07T12:36:01;19.10;64.80
3298;DHT22;1661;53.572;10.174;2023-08-07T13:25:01;19.20;65.60
3298;DHT22;1661;53.572;10.174;2023-08-07T13:27:28;19.60;64.40
3298;DHT22;1661;53.572;10.174;2023-08-07T13:29:55;19.90;64.60
3298;DHT22;1661;53.572;10.174;2023-08-07T13:32:22;20.10;62.70
3298;DHT22;1661;53.572;10.174;2023-08-07T13:34:49;20.40;60.90
3298;DHT22;1661;53.572;10.174;2023-08-07T13:37:17;20.50;62.30
3298;DHT22;1661;53.572;10.174;2023-08-07T13:39:43;20.60;61.20
3298;DHT22;1661;53.572;10.174;2023-08-07T13:42:12;20.50;61.40
3298;DHT22;1661;53.572;10.174;2023-08-07T13:44:38;20.70;62.30
3298;DHT22;1661;53.572;10.174;2023-08-07T13:47:06;20.80;61.80
3298;DHT22;1661;53.572;10.174;2023-08-07T13:49:33;20.90;62.70
3298;DHT22;1661;53.572;10.174;2023-08-07T13:52:00;20.90;60.20
3298;DHT22;1661;53.572;10.174;2023-08-07T13:54:28;20.80;60.70
3298;DHT22;1661;53.572;10.174;2023-08-07T13:56:55;20.60;60.80
3298;DHT22;1661;53.572;10.174;2023-08-07T13:59:23;20.60;62.20
3298;DHT22;1661;53.572;10.174;2023-08-07T14:01:50;20.60;60.20
3298;DHT22;1661;53.572;10.174;2023-08-07T14:04:17;20.50;60.30
3298;DHT22;1661;53.572;10.174;2023-08-07T14:06:46;20.30;62.40
3298;DHT22;1661;53.572;10.174;2023-08-07T14:09:13;20.20;61.30
3298;DHT22;1661;53.572;10.174;2023-08-07T14:11:39;20.00;60.30
3298;DHT22;1661;53.572;10.174;2023-08-07T14:14:06;19.70;60.60
3298;DHT22;1661;53.572;10.174;2023-08-07T14:16:34;19.60;60.80
3298;DHT22;1661;53.572;10.174;2023-08-07T14:19:01;19.40;61.70
3298;DHT22;1661;53.572;10.174;2023-08-07T14:21:28;19.30;62.20
3298;DHT22;1661;53.572;10.174;2023-08-07T14:23:55;19.30;61.70
3298;DHT22;1661;53.572;10.174;2023-08-07T14:26:21;19.20;61.50
3298;DHT22;1661;53.572;10.174;2023-08-07T14:28:48;19.30;62.10
3298;DHT22;1661;53.572;10.174;2023-08-07T14:31:15;19.40;62.10
3298;DHT22;1661;53.572;10.174;2023-08-07T14:33:43;19.40;60.70
3298;DHT22;1661;53.572;10.174;2023-08-07T14:36:10;19.40;59.50
3298;DHT22;1661;53.572;10.174;2023-08-07T14:38:37;19.20;60.20
3298;DHT22;1661;53.572;10.174;2023-08-07T14:41:03;19.10;59.50
3298;DHT22;1661;53.572;10.174;2023-08-07T14:43:30;19.10;61.50
3298;DHT22;1661;53.572;10.174;2023-08-07T14:45:57;19.10;60.40
3298;DHT22;1661;53.572;10.174;2023-08-07T14:48:24;19.10;61.30
3298;DHT22;1661;53.572;10.174;2023-08-07T14:50:52;19.20;60.80
3298;DHT22;1661;53.572;10.174;2023-08-07T14:53:21;19.10;60.40
3298;DHT22;1661;53.572;10.174;2023-08-07T14:55:48;19.30;60.10
3298;DHT22;1661;53.572;10.174;2023-08-07T14:58:14;19.60;61.90
3298;DHT22;1661;53.572;10.174;2023-08-07T15:00:41;19.70;60.20
3298;DHT22;1661;53.572;10.174;2023-08-07T15:03:08;19.50;60.50
3298;DHT22;1661;53.572;10.174;2023-08-07T15:05:35;19.50;63.30
3298;DHT22;1661;53.572;10.174;2023-08-07T15:08:03;19.50;62.70
3298;DHT22;1661;53.572;10.174;2023-08-07T15:10:30;19.30;67.10
3298;DHT22;1661;53.572;10.174;2023-08-07T15:12:57;19.10;69.20
3298;DHT22;1661;53.572;10.174;2023-08-07T15:15:24;18.90;70.90
3298;DHT22;1661;53.572;10.174;2023-08-07T15:17:51;18.80;71.80
3298;DHT22;1661;53.572;10.174;2023-08-07T15:20:18;18.50;72.90
3298;DHT22;1661;53.572;10.174;2023-08-07T15:22:46;18.30;74.10
3298;DHT22;1661;53.572;10.174;2023-08-07T15:25:14;18.00;75.10
3298;DHT22;1661;53.572;10.174;2023-08-07T15:27:41;17.70;75.00
3298;DHT22;1661;53.572;10.174;2023-08-07T15:30:09;17.30;77.10
3298;DHT22;1661;53.572;10.174;2023-08-07T15:32:36;17.30;78.10
3298;DHT22;1661;53.572;10.174;2023-08-07T15:35:04;17.10;77.10
3298;DHT22;1661;53.572;10.174;2023-08-07T15:37:31;17.10;77.60
3298;DHT22;1661;53.572;10.174;2023-08-07T15:39:58;17.20;78.00
3298;DHT22;1661;53.572;10.174;2023-08-07T15:42:26;17.20;76.20
3298;DHT22;1661;53.572;10.174;2023-08-07T15:44:52;17.10;77.00
3298;DHT22;1661;53.572;10.174;2023-08-07T15:47:19;17.20;77.80
3298;DHT22;1661;53.572;10.174;2023-08-07T15:49:46;17.20;77.20
3298;DHT22;1661;53.572;10.174;2023-08-07T15:52:14;17.10;78.70
3298;DHT22;1661;53.572;10.174;2023-08-07T15:54:41;17.00;80.60
3298;DHT22;1661;53.572;10.174;2023-08-07T15:57:09;16.90;81.60
3298;DHT22;1661;53.572;10.174;2023-08-07T15:59:38;16.70;80.60
3298;DHT22;1661;53.572;10.174;2023-08-07T16:02:05;16.50;79.40
3298;DHT22;1661;53.572;10.174;2023-08-07T16:04:33;16.30;79.70
3298;DHT22;1661;53.572;10.174;2023-08-07T16:07:00;16.30;80.40
3298;DHT22;1661;53.572;10.174;2023-08-07T16:09:27;16.10;80.60
3298;DHT22;1661;53.572;10.174;2023-08-07T16:11:54;16.20;81.10
3298;DHT22;1661;53.572;10.174;2023-08-07T16:14:21;16.20;80.90
3298;DHT22;1661;53.572;10.174;2023-08-07T16:16:50;16.10;81.70
3298;DHT22;1661;53.572;10.174;2023-08-07T16:19:17;16.20;81.70
3298;DHT22;1661;53.572;10.174;2023-08-07T16:21:44;16.20;81.50
3298;DHT22;1661;53.572;10.174;2023-08-07T16:24:11;16.30;81.10
3298;DHT22;1661;53.572;10.174;2023-08-07T16:26:38;16.30;80.50
3298;DHT22;1661;53.572;10.174;2023-08-07T16:29:05;16.30;80.20
3298;DHT22;1661;53.572;10.174;2023-08-07T16:31:32;16.40;80.00
3298;DHT22;1661;53.572;10.174;2023-08-07T16:34:00;16.40;79.60